createdAt,value
2018-02-23T00:01:15.012Z,20.07
2018-02-23T00:03:43.284Z,20.27
2018-02-23T00:06:11.583Z,20.30
2018-02-23T00:08:39.848Z,20.90
2018-02-23T00:11:08.111Z,20.70
2018-02-23T00:13:36.384Z,20.30
2018-02-23T00:16:04.656Z,20.47
2018-02-23T00:18:32.945Z,19.87
2018-02-23T00:21:01.214Z,20.67
2018-02-23T00:23:29.492Z,19.43
2018-02-23T00:25:57.766Z,20.20
2018-02-23T00:28:26.824Z,20.33
2018-02-23T00:30:55.106Z,19.53
2018-02-23T00:33:23.406Z,19.30
2018-02-23T00:35:51.662Z,19.67
2018-02-23T00:38:19.930Z,18.87
2018-02-23T00:40:48.223Z,18.60
2018-02-23T00:43:16.583Z,19.07
2018-02-23T00:45:44.854Z,19.13
2018-02-23T00:48:13.126Z,19.07
2018-02-23T00:50:41.396Z,16.93
2018-02-23T00:53:09.670Z,18.23
2018-02-23T00:55:37.947Z,18.93
2018-02-23T00:58:06.218Z,18.57
2018-02-23T01:00:34.499Z,18.83
2018-02-23T01:03:02.775Z,18.43
2018-02-23T01:05:31.083Z,18.83
2018-02-23T01:07:59.413Z,18.50
2018-02-23T01:10:28.424Z,19.07
2018-02-23T01:12:56.700Z,17.87
2018-02-23T01:15:24.970Z,19.13
2018-02-23T01:17:53.229Z,18.63
2018-02-23T01:20:21.516Z,18.70
2018-02-23T01:22:49.806Z,18.63
2018-02-23T01:25:18.086Z,19.73
2018-02-23T01:27:46.338Z,18.67
2018-02-23T01:30:14.643Z,18.80
2018-02-23T01:32:42.906Z,19.50
2018-02-23T01:35:11.176Z,18.97
2018-02-23T01:37:39.423Z,18.57
2018-02-23T01:40:08.550Z,18.73
2018-02-23T01:42:36.833Z,18.20
2018-02-23T01:45:05.119Z,19.37
2018-02-23T01:47:33.420Z,21.70
2018-02-23T01:50:02.523Z,19.57
2018-02-23T01:52:31.571Z,18.90
2018-02-23T01:54:59.850Z,20.00
2018-02-23T01:57:28.134Z,19.17
2018-02-23T01:59:56.543Z,19.27
2018-02-23T02:02:25.704Z,18.63
2018-02-23T02:04:53.965Z,18.30
2018-02-23T02:07:22.247Z,17.90
2018-02-23T02:09:50.514Z,19.63
2018-02-23T02:12:18.890Z,19.40
2018-02-23T02:14:47.176Z,19.03
2018-02-23T02:17:15.434Z,19.10
2018-02-23T02:19:43.688Z,17.57
2018-02-23T02:22:11.955Z,18.90
2018-02-23T02:24:40.215Z,19.00
2018-02-23T02:27:09.253Z,18.00
2018-02-23T02:29:37.568Z,18.53
2018-02-23T02:32:05.852Z,18.57
2018-02-23T02:34:34.907Z,18.77
2018-02-23T02:37:03.204Z,18.63
2018-02-23T02:39:31.724Z,19.00
2018-02-23T02:42:00.163Z,19.60
2018-02-23T02:44:28.457Z,18.13
2018-02-23T02:46:57.499Z,18.03
2018-02-23T02:49:25.806Z,17.83
2018-02-23T02:51:54.071Z,19.17
2018-02-23T02:54:22.347Z,19.20
2018-02-23T02:56:50.629Z,18.90
2018-02-23T02:59:19.095Z,18.37
2018-02-23T03:01:47.374Z,19.23
2018-02-23T03:04:15.660Z,18.87
2018-02-23T03:06:44.011Z,19.20
2018-02-23T03:09:12.283Z,19.67
2018-02-23T03:11:40.553Z,19.60
2018-02-23T03:14:08.807Z,19.73
2018-02-23T03:16:37.070Z,20.20
2018-02-23T03:19:06.127Z,18.90
2018-02-23T03:21:34.371Z,20.03
2018-02-23T03:24:02.683Z,19.40
2018-02-23T03:26:30.941Z,19.93
2018-02-23T03:28:59.221Z,19.40
2018-02-23T03:31:27.503Z,20.47
2018-02-23T03:33:55.799Z,20.43
2018-02-23T03:36:24.833Z,21.67
2018-02-23T03:38:53.127Z,19.80
2018-02-23T03:41:21.388Z,20.30
2018-02-23T03:43:49.701Z,20.13
2018-02-23T03:46:19.523Z,20.50
2018-02-23T03:48:47.780Z,23.00
2018-02-23T03:51:16.836Z,21.80
2018-02-23T03:53:45.096Z,21.83
2018-02-23T03:56:13.442Z,21.83
2018-02-23T03:58:41.710Z,21.93
2018-02-23T04:01:09.996Z,21.97
2018-02-23T04:03:38.279Z,23.50
2018-02-23T04:06:07.354Z,22.23
2018-02-23T04:08:35.625Z,22.10
2018-02-23T04:11:03.917Z,21.43
2018-02-23T04:13:32.155Z,22.17
2018-02-23T04:16:00.464Z,23.77
2018-02-23T04:18:28.707Z,22.17
2018-02-23T04:20:56.998Z,22.00
2018-02-23T04:23:26.767Z,21.87
2018-02-23T04:25:55.052Z,23.13
2018-02-23T04:28:23.340Z,22.43
2018-02-23T04:30:51.639Z,22.97
2018-02-23T04:33:20.007Z,23.83
2018-02-23T04:35:48.450Z,22.90
2018-02-23T04:38:16.762Z,23.60
2018-02-23T04:40:45.062Z,25.10
2018-02-23T04:43:14.102Z,23.47
2018-02-23T04:45:42.492Z,22.30
2018-02-23T04:48:10.771Z,24.77
2018-02-23T04:50:39.034Z,23.87
2018-02-23T04:53:07.402Z,23.53
2018-02-23T04:55:35.683Z,22.30
2018-02-23T04:58:03.943Z,24.47
2018-02-23T05:00:32.231Z,22.70
2018-02-23T05:03:00.699Z,23.70
2018-02-23T05:05:29.063Z,23.77
2018-02-23T05:07:57.339Z,24.63
2018-02-23T05:10:26.358Z,24.00
2018-02-23T05:12:54.751Z,24.90
2018-02-23T05:15:23.069Z,24.83
2018-02-23T05:17:51.362Z,24.53
2018-02-23T05:20:19.662Z,23.23
2018-02-23T05:22:47.919Z,23.80
2018-02-23T05:25:16.197Z,25.40
2018-02-23T05:27:44.540Z,24.37
2018-02-23T05:30:12.790Z,24.13
2018-02-23T05:32:41.058Z,23.87
2018-02-23T05:35:09.365Z,24.53
2018-02-23T05:37:38.486Z,24.97
2018-02-23T05:40:06.790Z,24.87
2018-02-23T05:42:35.153Z,24.37
2018-02-23T05:45:03.568Z,25.07
2018-02-23T05:47:31.860Z,25.30
2018-02-23T05:50:00.920Z,26.30
2018-02-23T05:52:29.241Z,25.80
2018-02-23T05:54:57.519Z,26.80
2018-02-23T05:57:25.801Z,26.17
2018-02-23T05:59:54.070Z,26.93
2018-02-23T06:02:22.355Z,26.57
2018-02-23T06:04:50.647Z,25.37
2018-02-23T06:07:18.972Z,27.60
2018-02-23T06:09:48.054Z,26.00
2018-02-23T06:12:16.499Z,27.33
2018-02-23T06:14:44.751Z,27.37
2018-02-23T06:17:13.218Z,26.43
2018-02-23T06:19:42.275Z,27.10
2018-02-23T06:22:11.440Z,27.27
2018-02-23T06:24:39.696Z,26.47
2018-02-23T06:27:07.959Z,27.40
2018-02-23T06:29:36.259Z,27.67
2018-02-23T06:32:04.530Z,28.50
2018-02-23T06:34:32.798Z,28.43
2018-02-23T06:37:01.172Z,28.27
2018-02-23T06:39:29.460Z,26.60
2018-02-23T06:41:57.903Z,29.33
2018-02-23T06:44:27.336Z,27.77
2018-02-23T06:46:56.506Z,27.07
2018-02-23T06:49:24.811Z,28.87
2018-02-23T06:51:53.083Z,28.07
2018-02-23T06:54:21.400Z,28.13
2018-02-23T06:56:49.877Z,28.57
2018-02-23T06:59:18.132Z,29.67
2018-02-23T07:01:47.234Z,28.03
2018-02-23T07:04:15.550Z,28.90
2018-02-23T07:06:43.817Z,28.63
2018-02-23T07:09:12.998Z,26.60
2018-02-23T07:11:41.300Z,27.03
2018-02-23T07:14:10.350Z,27.70
2018-02-23T07:16:38.819Z,27.97
2018-02-23T07:19:07.813Z,27.27
2018-02-23T07:21:36.083Z,24.80
2018-02-23T07:24:04.363Z,25.43
2018-02-23T07:26:32.802Z,23.37
2018-02-23T07:29:01.070Z,26.07
2018-02-23T07:31:30.119Z,24.57
2018-02-23T07:33:58.436Z,24.27
2018-02-23T07:36:26.897Z,24.57
2018-02-23T07:38:55.180Z,23.53
2018-02-23T07:41:24.314Z,23.63
2018-02-23T07:43:52.756Z,22.20
2018-02-23T07:46:20.996Z,20.67
2018-02-23T07:48:49.272Z,22.13
2018-02-23T07:51:17.525Z,22.33
2018-02-23T07:53:45.776Z,20.00
2018-02-23T07:56:14.095Z,19.57
2018-02-23T07:58:42.366Z,18.67
2018-02-23T08:01:10.671Z,18.03
2018-02-23T08:03:39.076Z,17.77
2018-02-23T08:06:07.352Z,17.90
2018-02-23T08:08:35.654Z,14.63
2018-02-23T08:11:03.897Z,13.63
2018-02-23T08:13:32.960Z,14.03
2018-02-23T08:16:01.236Z,15.47
2018-02-23T08:18:29.516Z,12.33
2018-02-23T08:20:57.880Z,14.33
2018-02-23T08:23:27.663Z,13.57
2018-02-23T08:25:55.949Z,12.67
2018-02-23T08:28:24.177Z,12.10
2018-02-23T08:30:53.226Z,12.30
2018-02-23T08:33:21.487Z,9.93
2018-02-23T08:35:49.806Z,10.50
2018-02-23T08:38:18.060Z,9.60
2018-02-23T08:40:46.356Z,10.30
2018-02-23T08:43:14.592Z,10.90
2018-02-23T08:45:42.857Z,7.90
2018-02-23T08:48:11.127Z,9.43
2018-02-23T08:50:39.403Z,9.17
2018-02-23T08:53:07.728Z,8.70
2018-02-23T08:55:35.979Z,7.27
2018-02-23T08:58:04.270Z,7.83
2018-02-23T09:00:44.354Z,7.73
2018-02-23T09:03:13.514Z,6.23
2018-02-23T09:05:41.778Z,5.97
2018-02-23T09:08:10.056Z,6.47
2018-02-23T09:10:38.287Z,7.07
2018-02-23T09:13:06.705Z,6.70
2018-02-23T09:15:34.972Z,7.50
2018-02-23T09:18:03.244Z,6.00
2018-02-23T09:20:31.614Z,6.27
2018-02-23T09:22:59.913Z,7.27
2018-02-23T09:25:28.160Z,7.53
2018-02-23T09:27:56.419Z,7.90
2018-02-23T09:30:24.679Z,7.80
2018-02-23T09:32:56.906Z,7.00
2018-02-23T09:35:25.199Z,6.53
2018-02-23T09:37:53.633Z,8.07
2018-02-23T09:40:22.022Z,7.10
2018-02-23T09:42:50.302Z,7.93
2018-02-23T09:45:18.590Z,5.73
2018-02-23T09:47:46.831Z,6.53
2018-02-23T09:50:15.171Z,7.30
2018-02-23T09:52:43.350Z,6.90
2018-02-23T09:55:11.640Z,7.37
2018-02-23T09:57:40.023Z,7.83
2018-02-23T10:00:08.291Z,6.33
2018-02-23T10:02:36.527Z,7.30
2018-02-23T10:05:05.086Z,7.20
2018-02-23T10:07:33.380Z,6.53
2018-02-23T10:10:01.643Z,7.67
2018-02-23T10:12:29.883Z,7.50
2018-02-23T10:14:58.159Z,6.57
2018-02-23T10:17:26.636Z,7.47
2018-02-23T10:19:54.846Z,6.63
2018-02-23T10:22:23.132Z,7.33
2018-02-23T10:24:51.397Z,7.63
2018-02-23T10:27:19.671Z,7.67
2018-02-23T10:29:47.923Z,6.67
2018-02-23T10:32:16.436Z,7.60
2018-02-23T10:34:44.680Z,7.40
2018-02-23T10:37:12.954Z,6.80
2018-02-23T10:39:41.224Z,6.70
2018-02-23T10:42:09.499Z,6.70
2018-02-23T10:44:37.752Z,7.60
2018-02-23T10:47:06.101Z,6.43
2018-02-23T10:49:34.283Z,6.43
2018-02-23T10:52:02.578Z,7.07
2018-02-23T10:54:30.836Z,7.20
2018-02-23T10:56:59.861Z,7.30
2018-02-23T10:59:28.126Z,6.37
2018-02-23T11:01:56.440Z,6.97
2018-02-23T11:04:24.708Z,6.63
2018-02-23T11:06:53.045Z,6.93
2018-02-23T11:09:21.314Z,7.20
2018-02-23T11:11:49.587Z,8.10
2018-02-23T11:14:18.034Z,7.30
2018-02-23T11:16:46.299Z,7.30
2018-02-23T11:19:14.722Z,7.23
2018-02-23T11:21:42.995Z,7.93
2018-02-23T11:24:11.266Z,6.77
2018-02-23T11:26:39.547Z,7.80
2018-02-23T11:29:08.046Z,7.00
2018-02-23T11:31:36.311Z,6.53
2018-02-23T11:34:04.649Z,7.83
2018-02-23T11:36:33.126Z,6.80
2018-02-23T11:39:01.388Z,6.90
2018-02-23T11:41:29.940Z,6.67
2018-02-23T11:43:58.233Z,7.10
2018-02-23T11:46:26.528Z,7.47
2018-02-23T11:48:54.770Z,6.97
2018-02-23T11:51:23.024Z,8.10
2018-02-23T11:53:51.280Z,8.30
2018-02-23T11:56:19.616Z,7.30
2018-02-23T11:58:47.906Z,6.80
2018-02-23T12:01:16.966Z,7.73
2018-02-23T12:03:45.261Z,8.37
2018-02-23T12:06:13.495Z,8.10
2018-02-23T12:08:41.808Z,7.37
2018-02-23T12:11:10.142Z,8.47
2018-02-23T12:13:38.672Z,7.77
2018-02-23T12:16:07.064Z,8.20
2018-02-23T12:18:35.303Z,7.10
2018-02-23T12:21:03.550Z,7.53
2018-02-23T12:23:31.878Z,6.27
2018-02-23T12:26:00.126Z,7.30
2018-02-23T12:28:28.375Z,7.07
2018-02-23T12:30:56.726Z,7.57
2018-02-23T12:33:25.740Z,8.23
2018-02-23T12:35:53.990Z,6.93
2018-02-23T12:38:23.166Z,6.83
2018-02-23T12:40:51.435Z,6.97
2018-02-23T12:43:19.718Z,7.13
2018-02-23T12:45:48.777Z,6.87
2018-02-23T12:48:17.140Z,7.00
2018-02-23T12:50:45.416Z,7.20
2018-02-23T12:53:13.711Z,6.80
2018-02-23T12:55:41.982Z,6.37
2018-02-23T12:58:10.220Z,6.97
2018-02-23T13:00:38.522Z,7.63
2018-02-23T13:03:06.776Z,7.63
2018-02-23T13:05:35.051Z,7.37
2018-02-23T13:08:03.322Z,7.00
2018-02-23T13:10:31.815Z,7.27
2018-02-23T13:13:00.254Z,6.67
2018-02-23T13:15:29.152Z,7.57
2018-02-23T13:17:58.169Z,7.43
2018-02-23T13:20:26.427Z,7.53
2018-02-23T13:22:55.477Z,7.33
2018-02-23T13:25:23.735Z,7.50
2018-02-23T13:27:52.010Z,6.80
2018-02-23T13:30:20.283Z,8.40
2018-02-23T13:32:48.657Z,7.73
2018-02-23T13:35:17.020Z,7.47
2018-02-23T13:37:45.310Z,7.80
2018-02-23T13:40:13.551Z,7.07
2018-02-23T13:42:42.582Z,8.07
2018-02-23T13:45:10.860Z,7.67
2018-02-23T13:47:39.143Z,8.03
2018-02-23T13:50:07.398Z,7.67
2018-02-23T13:52:35.668Z,9.47
2018-02-23T13:55:03.974Z,8.07
2018-02-23T13:57:32.189Z,7.73
2018-02-23T14:00:01.211Z,9.03
2018-02-23T14:02:29.520Z,7.47
2018-02-23T14:04:57.818Z,8.57
2018-02-23T14:07:26.830Z,8.63
2018-02-23T14:09:55.084Z,9.27
2018-02-23T14:12:24.107Z,7.67
2018-02-23T14:14:52.422Z,9.27
2018-02-23T14:17:20.695Z,8.60
2018-02-23T14:19:48.976Z,8.60
2018-02-23T14:22:17.282Z,8.43
2018-02-23T14:24:45.527Z,8.63
2018-02-23T14:27:13.974Z,7.93
2018-02-23T14:29:42.426Z,7.17
2018-02-23T14:32:10.695Z,8.27
2018-02-23T14:34:39.728Z,8.73
2018-02-23T14:37:08.639Z,8.23
2018-02-23T14:39:37.114Z,8.13
2018-02-23T14:42:05.392Z,8.53
2018-02-23T14:44:33.647Z,8.57
2018-02-23T14:47:01.935Z,8.27
2018-02-23T14:49:30.172Z,8.93
2018-02-23T14:51:58.440Z,9.27
2018-02-23T14:54:26.714Z,8.40
2018-02-23T14:56:55.527Z,8.30
2018-02-23T14:59:23.819Z,7.80
2018-02-23T15:01:53.708Z,8.13
2018-02-23T15:04:21.991Z,8.70
2018-02-23T15:06:50.383Z,8.50
2018-02-23T15:09:18.647Z,8.90
2018-02-23T15:11:47.138Z,9.23
2018-02-23T15:14:15.406Z,7.93
2018-02-23T15:16:44.489Z,8.67
2018-02-23T15:19:12.796Z,7.87
2018-02-23T15:21:41.069Z,8.50
2018-02-23T15:24:10.146Z,9.00
2018-02-23T15:26:38.412Z,8.67
2018-02-23T15:29:06.848Z,7.70
2018-02-23T15:31:47.844Z,9.20
2018-02-23T15:34:16.856Z,7.63
2018-02-23T15:36:45.140Z,7.97
2018-02-23T15:39:13.440Z,8.70
2018-02-23T15:41:41.689Z,8.20
2018-02-23T15:44:10.139Z,8.53
2018-02-23T15:46:38.431Z,7.60
2018-02-23T15:49:06.760Z,11.37
2018-02-23T15:51:35.051Z,11.27
2018-02-23T15:54:03.372Z,8.80
2018-02-23T15:56:32.427Z,8.80
2018-02-23T15:59:00.686Z,9.13
2018-02-23T16:01:29.720Z,8.93
2018-02-23T16:03:58.011Z,7.93
2018-02-23T16:06:26.256Z,8.07
2018-02-23T16:08:54.565Z,8.63
2018-02-23T16:11:22.824Z,9.17
2018-02-23T16:13:51.108Z,11.40
2018-02-23T16:16:19.359Z,8.90
2018-02-23T16:18:47.603Z,10.27
2018-02-23T16:21:15.880Z,8.50
2018-02-23T16:23:44.897Z,9.57
2018-02-23T16:26:13.232Z,21.83
2018-02-23T16:28:41.495Z,8.40
2018-02-23T16:31:11.422Z,7.67
2018-02-23T16:33:39.720Z,7.90
2018-02-23T16:36:08.073Z,9.20
2018-02-23T16:38:36.299Z,9.30
2018-02-23T16:41:04.629Z,8.90
2018-02-23T16:43:32.966Z,8.37
2018-02-23T16:46:01.224Z,9.17
2018-02-23T16:48:29.499Z,7.93
2018-02-23T16:50:57.755Z,8.30
2018-02-23T16:53:26.055Z,8.67
2018-02-23T16:55:54.318Z,9.37
2018-02-23T16:58:22.563Z,9.30
2018-02-23T17:00:51.596Z,8.40
2018-02-23T17:03:19.869Z,9.37
2018-02-23T17:05:48.147Z,7.80
2018-02-23T17:08:16.383Z,9.40
2018-02-23T17:10:45.431Z,8.57
2018-02-23T17:13:13.695Z,8.67
2018-02-23T17:15:41.976Z,10.10
2018-02-23T17:18:10.311Z,9.07
2018-02-23T17:20:38.579Z,20.20
2018-02-23T17:23:07.601Z,15.13
2018-02-23T17:25:36.028Z,13.03
2018-02-23T17:28:05.257Z,13.93
2018-02-23T17:30:33.603Z,17.80
2018-02-23T17:33:01.981Z,20.90
2018-02-23T17:35:30.283Z,11.60
2018-02-23T17:37:59.354Z,12.87
2018-02-23T17:40:27.644Z,18.43
2018-02-23T17:42:56.670Z,14.50
2018-02-23T17:45:24.912Z,10.10
2018-02-23T17:47:53.957Z,14.77
2018-02-23T17:50:22.348Z,11.97
2018-02-23T17:52:50.564Z,11.37
2018-02-23T17:55:19.607Z,11.10
2018-02-23T17:57:49.398Z,11.43
2018-02-23T18:00:17.674Z,9.13
2018-02-23T18:02:46.857Z,9.00
2018-02-23T18:05:15.886Z,9.40
2018-02-23T18:07:44.187Z,10.37
2018-02-23T18:10:13.375Z,14.07
2018-02-23T18:12:42.464Z,9.97
2018-02-23T18:15:10.718Z,9.90
2018-02-23T18:17:39.026Z,12.03
2018-02-23T18:20:07.603Z,10.50
2018-02-23T18:22:36.182Z,10.50
2018-02-23T18:25:04.453Z,10.00
2018-02-23T18:27:32.762Z,11.03
2018-02-23T18:30:01.777Z,10.10
2018-02-23T18:32:30.035Z,9.43
2018-02-23T18:34:58.297Z,14.17
2018-02-23T18:37:27.365Z,13.60
2018-02-23T18:39:55.646Z,9.53
2018-02-23T18:42:24.751Z,9.57
2018-02-23T18:44:53.799Z,10.23
2018-02-23T18:47:22.083Z,12.73
2018-02-23T18:49:50.614Z,10.87
2018-02-23T18:52:19.034Z,17.70
2018-02-23T18:54:47.362Z,17.00
2018-02-23T18:57:15.655Z,12.27
2018-02-23T18:59:44.009Z,15.53
2018-02-23T19:02:13.038Z,10.87
2018-02-23T19:04:41.311Z,20.13
2018-02-23T19:07:10.404Z,11.90
2018-02-23T19:09:38.701Z,20.70
2018-02-23T19:12:06.955Z,11.17
2018-02-23T19:14:35.235Z,14.87
2018-02-23T19:17:03.574Z,15.87
2018-02-23T19:19:31.868Z,16.13
2018-02-23T19:22:01.060Z,18.77
2018-02-23T19:24:29.341Z,14.23
2018-02-23T19:26:57.575Z,10.03
2018-02-23T19:29:25.826Z,10.13
2018-02-23T19:31:54.309Z,11.80
2018-02-23T19:34:22.584Z,10.00
2018-02-23T19:36:50.876Z,11.10
2018-02-23T19:39:19.144Z,10.13
2018-02-23T19:41:47.417Z,12.87
2018-02-23T19:44:15.690Z,12.13
2018-02-23T19:46:44.073Z,11.57
2018-02-23T19:49:13.862Z,12.13
2018-02-23T19:51:42.219Z,10.40
2018-02-23T19:54:10.439Z,11.40
2018-02-23T19:56:38.720Z,11.23
2018-02-23T19:59:07.759Z,11.77
2018-02-23T20:01:36.001Z,10.40
2018-02-23T20:04:04.461Z,10.17
2018-02-23T20:06:33.556Z,11.70
2018-02-23T20:09:02.584Z,11.60
2018-02-23T20:11:30.856Z,11.07
2018-02-23T20:13:59.126Z,11.00
2018-02-23T20:16:27.421Z,12.13
2018-02-23T20:18:55.703Z,12.00
2018-02-23T20:21:23.999Z,12.53
2018-02-23T20:23:53.100Z,12.03
2018-02-23T20:26:21.352Z,10.53
2018-02-23T20:28:49.653Z,10.50
2018-02-23T20:31:17.934Z,11.27
2018-02-23T20:33:46.212Z,11.63
2018-02-23T20:36:14.492Z,12.47
2018-02-23T20:38:43.539Z,11.93
2018-02-23T20:41:11.807Z,10.83
2018-02-23T20:43:40.144Z,11.27
2018-02-23T20:46:08.391Z,11.60
2018-02-23T20:48:36.670Z,11.60
2018-02-23T20:51:05.127Z,11.40
2018-02-23T20:53:33.391Z,11.67
2018-02-23T20:56:01.687Z,9.67
2018-02-23T20:58:30.061Z,12.03
2018-02-23T21:00:58.600Z,11.87
2018-02-23T21:03:26.880Z,12.13
2018-02-23T21:05:55.139Z,11.50
2018-02-23T21:08:24.259Z,10.97
2018-02-23T21:10:52.555Z,10.67
2018-02-23T21:13:20.893Z,10.17
2018-02-23T21:15:49.924Z,12.10
2018-02-23T21:18:18.358Z,11.60
2018-02-23T21:20:46.819Z,12.10
2018-02-23T21:23:15.128Z,11.43
2018-02-23T21:25:43.388Z,12.10
2018-02-23T21:28:11.681Z,11.23
2018-02-23T21:30:39.948Z,11.73
2018-02-23T21:33:08.997Z,10.30
2018-02-23T21:35:37.284Z,11.27
2018-02-23T21:38:06.502Z,11.83
2018-02-23T21:40:35.533Z,11.73
2018-02-23T21:43:03.819Z,11.33
2018-02-23T21:45:32.045Z,11.30
2018-02-23T21:48:00.349Z,11.77
2018-02-23T21:50:28.908Z,12.67
2018-02-23T21:52:57.975Z,11.80
2018-02-23T21:55:27.074Z,10.40
2018-02-23T21:57:55.352Z,12.03
2018-02-23T22:00:24.420Z,11.13
2018-02-23T22:02:52.676Z,10.77
2018-02-23T22:05:21.001Z,10.83
2018-02-23T22:07:49.269Z,11.03
2018-02-23T22:10:18.465Z,11.73
2018-02-23T22:12:47.516Z,11.57
2018-02-23T22:15:15.915Z,10.53
2018-02-23T22:17:44.213Z,11.17
2018-02-23T22:20:13.265Z,10.87
2018-02-23T22:22:41.624Z,10.77
2018-02-23T22:25:10.715Z,10.90
2018-02-23T22:27:39.195Z,11.63
2018-02-23T22:30:07.476Z,10.50
2018-02-23T22:32:35.753Z,10.57
2018-02-23T22:35:04.021Z,10.57
2018-02-23T22:37:32.362Z,10.87
2018-02-23T22:40:01.469Z,11.57
2018-02-23T22:42:29.811Z,10.97
2018-02-23T22:44:58.514Z,11.13
2018-02-23T22:47:31.836Z,11.70
2018-02-23T22:50:00.132Z,11.43
2018-02-23T22:52:28.433Z,10.93
2018-02-23T22:54:56.711Z,10.93
2018-02-23T22:57:25.043Z,12.27
2018-02-23T22:59:53.314Z,11.47
2018-02-23T23:02:21.811Z,11.40
2018-02-23T23:04:50.147Z,11.20
2018-02-23T23:07:19.358Z,11.17
2018-02-23T23:09:47.664Z,12.40
2018-02-23T23:12:15.935Z,11.70
2018-02-23T23:14:44.206Z,10.70
2018-02-23T23:17:12.597Z,10.57
2018-02-23T23:19:40.883Z,10.53
2018-02-23T23:22:09.258Z,11.03
2018-02-23T23:24:37.555Z,11.13
2018-02-23T23:27:05.808Z,10.83
2018-02-23T23:29:34.098Z,11.40
2018-02-23T23:32:02.364Z,11.17
2018-02-23T23:34:30.755Z,10.47
2018-02-23T23:36:59.148Z,11.70
2018-02-23T23:39:30.824Z,10.17
2018-02-23T23:41:59.139Z,11.37
2018-02-23T23:44:27.382Z,11.60
2018-02-23T23:46:55.653Z,10.73
2018-02-23T23:49:24.050Z,11.30
2018-02-23T23:51:52.339Z,10.83
2018-02-23T23:54:20.623Z,11.73
2018-02-23T23:56:48.905Z,11.67
2018-02-23T23:59:17.258Z,11.60
